Fisherman's Dream B — WDI3738 — position and weather

sailwx.info

Track history (hours):
 
Tides and Currents Weather Stations Pressure Air Temp Water Temp Dewpoint Dewpoint Depression Visibility Wind Speed Wind Dir Waves Ship Positions

Fisherman's Dream B

Owner: Fisherman's Dream Commercial Fishing Company, WILDWOOD CREST, NJ. More information available from US FCC via Universal Licensing System and Coast Guard Vessel Documentation Center.

Last reported at 2017-Oct-10 23:57 UTC. Time now 2017-Oct-16 22:31 UTC.
Position N 38°57' W 074°53'.

Length 30 m.

Type: Fishing. MMSI: 367053040.

Date/timePositionNaut miles runAvg speedWind from/ knotsBaromVisibWave heightAir tempDewpointWater temp
2017-Oct-10 23:57N 38°57' W 074°53'0 0.0
2017-Oct-10 12:57N 38°57' W 074°53'0 0.0
2017-Oct-10 12:30N 38°57' W 074°53'0 0.0
2017-Oct-10 11:57N 38°57' W 074°53'0 0.0
2017-Oct-10 07:45N 38°57' W 074°53'0 0.0
2017-Oct-10 07:30N 38°57' W 074°53'0 0.0
2017-Oct-10 07:00N 38°57' W 074°53'0 0.0
2017-Oct-10 06:21N 38°57' W 074°53'0 0.0
2017-Oct-10 05:45N 38°57' W 074°53'0 0.0
2017-Oct-10 05:30N 38°57' W 074°53'0 0.0
2017-Oct-09 08:17N 38°58' W 074°53'0 0.0
2017-Oct-09 07:59N 38°58' W 074°53'0 0.0
2017-Oct-09 07:29N 38°58' W 074°53'0 0.0
2017-Oct-09 06:11N 38°58' W 074°53'  
2017-Oct-05 13:46N 38°46' W 073°37'1 1.9
2017-Oct-05 13:05N 38°47' W 073°38'0 4.6
2017-Oct-05 13:00N 38°47' W 073°38'3 4.6
2017-Oct-05 12:27N 38°47' W 073°35'0 0.8
2017-Oct-05 12:00N 38°47' W 073°35'2 1.6
2017-Oct-05 10:58N 38°48' W 073°33'5 0.9
2017-Oct-05 05:22N 38°44' W 073°36'1 3.3
2017-Oct-05 05:00N 38°43' W 073°34'  
Track history (hours):
 
Tides and Currents Weather Stations Pressure Air Temp Water Temp Dewpoint Dewpoint Depression Visibility Wind Speed Wind Dir Waves Ship Positions

Fisherman's Dream B

Owner: Fisherman's Dream Commercial Fishing Company, WILDWOOD CREST, NJ. More information available from US FCC via Universal Licensing System and Coast Guard Vessel Documentation Center.

Last reported at 2017-Oct-10 23:57 UTC. Time now 2017-Oct-16 22:31 UTC.
Position N 38°57' W 074°53'.

Length 30 m.

Type: Fishing. MMSI: 367053040.

Date/timePositionNaut miles runAvg speedWind from/ knotsBaromVisibWave heightAir tempDewpointWater temp
2017-Oct-10 23:57N 38°57' W 074°53'0 0.0
2017-Oct-10 12:57N 38°57' W 074°53'0 0.0
2017-Oct-10 12:30N 38°57' W 074°53'0 0.0
2017-Oct-10 11:57N 38°57' W 074°53'0 0.0
2017-Oct-10 07:45N 38°57' W 074°53'0 0.0
2017-Oct-10 07:30N 38°57' W 074°53'0 0.0
2017-Oct-10 07:00N 38°57' W 074°53'0 0.0
2017-Oct-10 06:21N 38°57' W 074°53'0 0.0
2017-Oct-10 05:45N 38°57' W 074°53'0 0.0
2017-Oct-10 05:30N 38°57' W 074°53'0 0.0
2017-Oct-09 08:17N 38°58' W 074°53'0 0.0
2017-Oct-09 07:59N 38°58' W 074°53'0 0.0
2017-Oct-09 07:29N 38°58' W 074°53'0 0.0
2017-Oct-09 06:11N 38°58' W 074°53'  
2017-Oct-05 13:46N 38°46' W 073°37'1 1.9
2017-Oct-05 13:05N 38°47' W 073°38'0 4.6
2017-Oct-05 13:00N 38°47' W 073°38'3 4.6
2017-Oct-05 12:27N 38°47' W 073°35'0 0.8
2017-Oct-05 12:00N 38°47' W 073°35'2 1.6
2017-Oct-05 10:58N 38°48' W 073°33'5 0.9
2017-Oct-05 05:22N 38°44' W 073°36'1 3.3
2017-Oct-05 05:00N 38°43' W 073°34'  

Dump ship's entire track history